Time;durP1;ratioP1;P1;durP2;ratioP2;P2;SDS_P1;SDS_P2;PMS_P1;PMS_P2;Temp;Humidity;BMP_temperature;BMP_pressure;BME280_temperature;BME280_humidity;BME280_pressure;Samples;Min_cycle;Max_cycle;Signal;HPM_P1;HPM_P2
2023/09/05 00:01:51;;;;;;;6.97;6.28;;;15.70;99.90;;;;;;5133964;27;20039;-81
2023/09/05 00:04:17;;;;;;;7.80;6.18;;;15.60;99.90;;;;;;5134297;27;20062;-80
2023/09/05 00:06:43;;;;;;;7.47;6.53;;;15.60;99.90;;;;;;5133670;27;20499;-82
2023/09/05 00:09:08;;;;;;;7.05;6.43;;;15.50;99.90;;;;;;5133715;27;20043;-81
2023/09/05 00:11:34;;;;;;;8.10;7.25;;;15.50;99.90;;;;;;5133555;27;20040;-81
2023/09/05 00:14:03;;;;;;;7.60;6.78;;;15.50;99.90;;;;;;5134050;27;20065;-82
2023/09/05 00:16:29;;;;;;;7.63;6.55;;;15.50;99.90;;;;;;5133969;27;20047;-80
2023/09/05 00:18:55;;;;;;;7.38;5.93;;;15.40;99.90;;;;;;5115601;28;20043;-81
2023/09/05 00:21:21;;;;;;;7.28;6.55;;;15.40;99.90;;;;;;5133433;28;20039;-82
2023/09/05 00:23:47;;;;;;;7.25;6.28;;;15.40;99.90;;;;;;5133931;28;20042;-80
2023/09/05 00:26:13;;;;;;;7.43;6.45;;;15.40;99.90;;;;;;5133891;28;20503;-82
2023/09/05 00:28:41;;;;;;;7.25;6.55;;;15.30;99.90;;;;;;5133548;28;20422;-80
2023/09/05 00:31:07;;;;;;;8.25;6.50;;;15.30;99.90;;;;;;5115289;28;20476;-81
2023/09/05 00:33:32;;;;;;;7.47;6.05;;;15.30;99.90;;;;;;5133969;28;20139;-81
2023/09/05 00:35:58;;;;;;;8.02;5.85;;;15.30;99.90;;;;;;5133578;28;20075;-81
2023/09/05 00:38:24;;;;;;;6.90;5.47;;;15.30;99.90;;;;;;5133546;28;20039;-81
2023/09/05 00:40:50;;;;;;;6.50;5.75;;;15.20;99.90;;;;;;5133765;28;20082;-81
2023/09/05 00:43:20;;;;;;;8.07;7.20;;;15.20;99.90;;;;;;5133332;28;20047;-82
2023/09/05 00:45:52;;;;;;;7.07;6.38;;;15.10;99.90;;;;;;5115004;28;20579;-82
2023/09/05 00:48:23;;;;;;;7.95;6.95;;;15.20;99.90;;;;;;5133493;28;20055;-81
2023/09/05 00:50:51;;;;;;;7.53;6.03;;;15.10;99.90;;;;;;5114853;28;20502;-81
2023/09/05 00:53:17;;;;;;;6.03;5.28;;;15.10;99.90;;;;;;5133253;28;20055;-81
2023/09/05 00:55:43;;;;;;;5.03;4.63;;;15.10;99.90;;;;;;5133330;28;20050;-80
2023/09/05 00:58:11;;;;;;;6.75;5.45;;;15.00;99.90;;;;;;5133279;28;20364;-80
2023/09/05 01:00:36;;;;;;;5.63;5.07;;;14.90;99.90;;;;;;5133215;28;20054;-80
2023/09/05 01:03:02;;;;;;;7.47;5.82;;;14.90;99.90;;;;;;5133603;28;20064;-80
2023/09/05 01:05:33;;;;;;;7.53;6.80;;;14.80;99.90;;;;;;5133021;28;20122;-80
2023/09/05 01:08:04;;;;;;;8.00;7.20;;;14.80;99.90;;;;;;5133375;27;20164;-80
2023/09/05 01:10:46;;;;;;;8.73;6.78;;;14.70;99.90;;;;;;5137403;27;20043;-80
2023/09/05 01:13:12;;;;;;;6.22;5.63;;;14.70;99.90;;;;;;5118936;27;20096;-81
2023/09/05 01:15:38;;;;;;;6.72;5.63;;;14.70;99.90;;;;;;5118661;27;20039;-80
2023/09/05 01:18:04;;;;;;;6.30;5.70;;;14.60;99.90;;;;;;5136969;27;20047;-79
2023/09/05 01:20:40;;;;;;;11.32;8.32;;;14.60;99.90;;;;;;5118542;27;20084;-80
2023/09/05 01:23:17;;;;;;;9.90;8.45;;;14.60;99.90;;;;;;5119078;27;20047;-81
2023/09/05 01:25:44;;;;;;;8.48;7.20;;;14.70;99.90;;;;;;5137596;27;20050;-80
2023/09/05 01:28:11;;;;;;;9.57;7.53;;;14.70;99.90;;;;;;5136569;27;20088;-80
2023/09/05 01:30:40;;;;;;;8.82;6.55;;;14.70;99.90;;;;;;5136662;27;20058;-80
2023/09/05 01:33:06;;;;;;;6.75;6.05;;;14.70;99.90;;;;;;5101762;27;20047;-81
2023/09/05 01:35:31;;;;;;;10.50;8.57;;;14.70;99.90;;;;;;5136533;27;20043;-80
2023/09/05 01:37:58;;;;;;;10.27;8.77;;;14.70;99.90;;;;;;5136504;27;20050;-79
2023/09/05 01:40:23;;;;;;;8.65;7.78;;;14.70;99.90;;;;;;5136170;27;20066;-81
2023/09/05 01:42:49;;;;;;;11.63;9.20;;;14.70;99.90;;;;;;5136365;27;20039;-80
2023/09/05 01:45:15;;;;;;;9.93;8.90;;;14.60;99.90;;;;;;5118359;27;20082;-80
2023/09/05 01:47:40;;;;;;;11.35;9.82;;;14.70;99.90;;;;;;5136235;27;20043;-79
2023/09/05 01:50:06;;;;;;;8.65;7.45;;;14.70;99.90;;;;;;5136571;27;20471;-81
2023/09/05 01:52:32;;;;;;;8.68;7.78;;;14.70;99.90;;;;;;5136419;27;20039;-81
2023/09/05 01:54:57;;;;;;;8.50;7.57;;;14.70;99.90;;;;;;5136379;27;20103;-81
2023/09/05 01:57:23;;;;;;;9.88;8.73;;;14.70;99.90;;;;;;5136060;27;20043;-80
2023/09/05 01:59:49;;;;;;;10.85;8.60;;;14.70;99.90;;;;;;5117914;27;20121;-80
2023/09/05 02:02:14;;;;;;;11.45;10.25;;;14.70;99.90;;;;;;5136328;27;20083;-79
2023/09/05 02:04:40;;;;;;;10.77;9.50;;;14.60;99.90;;;;;;5117609;27;20047;-82
2023/09/05 02:07:06;;;;;;;9.60;8.70;;;14.60;99.90;;;;;;5136755;27;20035;-80
2023/09/05 02:09:32;;;;;;;8.85;7.95;;;14.60;99.90;;;;;;5135607;27;20337;-81
2023/09/05 02:11:57;;;;;;;6.97;6.00;;;14.60;99.90;;;;;;5136123;27;20134;-81
2023/09/05 02:14:23;;;;;;;9.18;8.27;;;14.60;99.90;;;;;;5135917;27;20043;-80
2023/09/05 02:16:49;;;;;;;11.20;8.60;;;14.60;99.90;;;;;;5135799;27;20428;-80
2023/09/05 02:19:16;;;;;;;12.77;10.00;;;14.60;99.90;;;;;;5116994;27;20100;-80
2023/09/05 02:21:41;;;;;;;12.93;9.57;;;14.50;99.90;;;;;;5135586;27;20128;-80
2023/09/05 02:24:07;;;;;;;11.15;9.30;;;14.50;99.90;;;;;;5136083;27;20047;-80
2023/09/05 02:26:33;;;;;;;10.18;8.95;;;14.50;99.90;;;;;;5135519;27;20476;-80
2023/09/05 02:28:59;;;;;;;12.82;10.65;;;14.50;99.90;;;;;;5135544;27;20039;-79
2023/09/05 02:31:24;;;;;;;11.00;9.25;;;14.50;99.90;;;;;;5117171;27;20046;-81
2023/09/05 02:33:50;;;;;;;12.13;10.60;;;14.50;99.90;;;;;;5117276;27;20043;-80
2023/09/05 02:36:18;;;;;;;10.23;9.23;;;14.40;99.90;;;;;;5135425;27;20043;-82
2023/09/05 02:38:44;;;;;;;13.98;9.95;;;14.50;99.90;;;;;;5135525;27;20127;-79
2023/09/05 02:41:14;;;;;;;11.00;9.30;;;14.50;99.90;;;;;;5135802;27;20051;-80
2023/09/05 02:43:40;;;;;;;12.32;10.27;;;14.40;99.90;;;;;;5135860;27;20054;-80
2023/09/05 02:46:07;;;;;;;10.63;9.52;;;14.40;99.90;;;;;;5135783;27;20043;-80
2023/09/05 02:48:39;;;;;;;10.48;9.45;;;14.40;99.90;;;;;;5135114;27;20573;-80
2023/09/05 02:51:10;;;;;;;9.98;8.98;;;14.30;99.90;;;;;;5135061;27;20085;-80
2023/09/05 02:53:36;;;;;;;10.45;9.43;;;14.30;99.90;;;;;;5135113;27;20047;-80
2023/09/05 02:56:02;;;;;;;9.23;8.27;;;14.20;99.90;;;;;;5135126;27;20476;-80
2023/09/05 02:58:28;;;;;;;9.40;8.00;;;14.20;99.90;;;;;;5099658;27;20062;-81
2023/09/05 03:01:01;;;;;;;7.38;6.70;;;14.20;99.90;;;;;;5116501;27;20434;-80
2023/09/05 03:03:27;;;;;;;9.23;8.30;;;14.10;99.90;;;;;;5117010;27;20100;-81
2023/09/05 03:05:53;;;;;;;9.80;8.57;;;14.10;99.90;;;;;;5134786;27;20047;-80
2023/09/05 03:08:19;;;;;;;11.10;8.38;;;14.10;99.90;;;;;;5135194;27;20079;-83
2023/09/05 03:10:51;;;;;;;9.23;8.30;;;14.10;99.90;;;;;;5134890;27;20039;-80
2023/09/05 03:13:17;;;;;;;9.98;7.57;;;14.10;99.90;;;;;;5134942;27;20043;-80
2023/09/05 03:15:42;;;;;;;12.55;10.52;;;14.10;99.90;;;;;;5134664;27;20051;-80
2023/09/05 03:18:08;;;;;;;14.63;10.10;;;14.10;99.90;;;;;;5134732;27;20054;-79
2023/09/05 03:20:34;;;;;;;11.65;10.40;;;14.10;99.90;;;;;;5134297;27;20080;-81
2023/09/05 03:22:59;;;;;;;12.77;11.48;;;14.10;99.90;;;;;;5134791;27;20431;-79
2023/09/05 03:25:25;;;;;;;11.93;9.55;;;14.10;99.90;;;;;;5134390;27;20126;-81
2023/09/05 03:27:51;;;;;;;11.18;9.90;;;14.10;99.90;;;;;;5134328;27;20047;-79
2023/09/05 03:30:16;;;;;;;12.77;10.13;;;14.10;99.90;;;;;;5134768;27;20474;-80
2023/09/05 03:32:42;;;;;;;13.10;11.20;;;14.10;99.90;;;;;;5115199;27;20043;-81
2023/09/05 03:35:08;;;;;;;10.98;9.95;;;14.10;99.90;;;;;;5134207;27;20053;-79
2023/09/05 03:37:33;;;;;;;11.88;9.35;;;14.20;99.90;;;;;;5099042;27;20047;-83
2023/09/05 03:39:59;;;;;;;12.68;9.70;;;14.10;99.90;;;;;;5134156;27;20059;-80
2023/09/05 03:42:25;;;;;;;11.95;10.43;;;14.10;99.90;;;;;;5134045;27;20053;-80
2023/09/05 03:44:51;;;;;;;11.38;9.98;;;14.10;99.90;;;;;;5133993;27;20054;-79
2023/09/05 03:47:16;;;;;;;14.10;9.85;;;14.10;99.90;;;;;;5134680;27;20050;-79
2023/09/05 03:49:42;;;;;;;11.07;9.98;;;14.10;99.90;;;;;;5134020;27;20395;-82
2023/09/05 03:52:08;;;;;;;10.77;9.77;;;14.10;99.90;;;;;;5134218;27;20487;-80
2023/09/05 03:54:33;;;;;;;11.95;10.18;;;14.10;99.90;;;;;;5134229;27;20051;-79
2023/09/05 03:56:59;;;;;;;12.30;11.20;;;14.00;99.90;;;;;;5115944;27;20047;-80
2023/09/05 03:59:25;;;;;;;11.48;10.35;;;14.00;99.90;;;;;;5133821;27;20039;-80
2023/09/05 04:01:50;;;;;;;14.55;11.93;;;14.00;99.90;;;;;;5133943;27;20089;-81
2023/09/05 04:04:16;;;;;;;15.35;11.82;;;14.00;99.90;;;;;;5133755;27;20043;-81
2023/09/05 04:06:42;;;;;;;12.07;10.88;;;14.00;99.90;;;;;;5133726;27;20047;-80
2023/09/05 04:09:07;;;;;;;12.18;9.63;;;14.00;99.90;;;;;;5115666;27;20505;-81
2023/09/05 04:11:34;;;;;;;9.98;8.95;;;14.00;99.90;;;;;;5115638;27;20121;-81
2023/09/05 04:14:00;;;;;;;10.60;9.50;;;14.00;99.90;;;;;;5115102;28;20040;-82
2023/09/05 04:16:25;;;;;;;13.95;11.45;;;13.90;99.90;;;;;;5133537;27;20042;-80
2023/09/05 04:18:51;;;;;;;14.40;11.18;;;14.00;99.90;;;;;;5134211;27;20448;-82
2023/09/05 04:21:17;;;;;;;13.13;11.27;;;14.00;99.90;;;;;;5133605;28;20479;-80
2023/09/05 04:23:42;;;;;;;11.60;9.85;;;14.00;99.90;;;;;;5133376;28;20440;-82
2023/09/05 04:26:08;;;;;;;14.93;12.90;;;13.90;99.90;;;;;;5115816;28;20425;-79
2023/09/05 04:28:34;;;;;;;14.65;11.50;;;13.90;99.90;;;;;;5133411;28;20043;-80
2023/09/05 04:31:04;;;;;;;12.88;11.02;;;13.90;99.90;;;;;;5133881;28;20051;-79
2023/09/05 04:33:36;;;;;;;14.70;12.07;;;13.90;99.90;;;;;;5133781;28;20042;-79
2023/09/05 04:36:05;;;;;;;14.13;11.95;;;13.90;99.90;;;;;;5133824;28;20047;-82
2023/09/05 04:38:31;;;;;;;14.27;11.93;;;13.80;99.90;;;;;;5133358;28;20054;-79
2023/09/05 04:41:03;;;;;;;15.57;11.02;;;13.90;99.90;;;;;;5133387;28;20048;-80
2023/09/05 04:43:30;;;;;;;14.43;12.57;;;13.90;99.90;;;;;;5136067;27;20047;-79
2023/09/05 04:45:56;;;;;;;13.10;11.68;;;13.80;99.90;;;;;;5137651;27;20047;-80
2023/09/05 04:48:23;;;;;;;12.52;11.20;;;13.80;99.90;;;;;;5137447;27;20046;-80
2023/09/05 04:50:49;;;;;;;13.43;12.00;;;13.80;99.90;;;;;;5137615;27;20064;-79
2023/09/05 04:53:15;;;;;;;14.25;12.05;;;13.80;99.90;;;;;;5137360;27;20122;-81
2023/09/05 04:55:44;;;;;;;14.20;12.60;;;13.70;99.90;;;;;;5138062;27;20448;-79
2023/09/05 04:58:13;;;;;;;11.10;9.85;;;13.70;99.90;;;;;;5137052;27;20602;-80
2023/09/05 05:00:41;;;;;;;13.40;10.68;;;13.70;99.90;;;;;;5137174;27;20082;-80
2023/09/05 05:03:06;;;;;;;13.18;11.82;;;13.80;99.90;;;;;;5137173;27;20122;-80
2023/09/05 05:05:32;;;;;;;15.07;13.57;;;13.80;99.90;;;;;;5137096;27;20079;-80
2023/09/05 05:07:58;;;;;;;14.73;12.82;;;13.80;99.90;;;;;;5136931;27;20059;-80
2023/09/05 05:10:23;;;;;;;13.38;11.55;;;13.80;99.90;;;;;;5137133;27;20047;-80
2023/09/05 05:12:49;;;;;;;14.05;10.70;;;13.80;99.90;;;;;;5118563;27;20134;-79
2023/09/05 05:15:15;;;;;;;13.52;11.65;;;13.80;99.90;;;;;;5136991;27;20046;-79
2023/09/05 05:17:40;;;;;;;14.43;12.05;;;13.80;99.90;;;;;;5136449;27;20125;-80
2023/09/05 05:20:07;;;;;;;12.35;11.13;;;13.80;99.90;;;;;;5136751;27;20044;-80
2023/09/05 05:22:33;;;;;;;13.70;12.27;;;13.70;99.90;;;;;;5136808;27;20039;-81
2023/09/05 05:24:59;;;;;;;11.55;10.13;;;13.80;99.90;;;;;;5137389;27;20043;-80
2023/09/05 05:27:25;;;;;;;17.77;10.90;;;13.80;99.90;;;;;;5137044;27;20073;-80
2023/09/05 05:29:52;;;;;;;12.43;11.15;;;13.70;99.90;;;;;;5136574;27;20481;-79
2023/09/05 05:32:18;;;;;;;13.02;11.60;;;13.70;99.90;;;;;;5137225;27;20047;-80
2023/09/05 05:34:48;;;;;;;13.40;12.00;;;13.70;99.90;;;;;;5137107;27;20472;-79
2023/09/05 05:37:17;;;;;;;12.43;11.02;;;13.60;99.90;;;;;;5136791;27;20077;-80
2023/09/05 05:39:43;;;;;;;13.63;12.07;;;13.60;99.90;;;;;;5136287;27;20094;-81
2023/09/05 05:42:09;;;;;;;11.90;10.52;;;13.60;99.90;;;;;;5118559;27;20329;-79
2023/09/05 05:44:34;;;;;;;13.30;11.07;;;13.70;99.90;;;;;;5136659;27;20049;-79
2023/09/05 05:47:00;;;;;;;13.15;11.77;;;13.70;99.90;;;;;;5101536;27;20043;-81
2023/09/05 05:49:29;;;;;;;12.43;11.10;;;13.70;99.90;;;;;;5135983;27;20057;-80
2023/09/05 05:51:58;;;;;;;10.85;9.38;;;13.80;99.90;;;;;;5136279;27;20079;-80
2023/09/05 05:54:25;;;;;;;12.20;10.90;;;13.80;99.90;;;;;;5135129;27;20537;-78
2023/09/05 05:56:55;;;;;;;14.05;12.57;;;13.90;99.90;;;;;;5100726;27;20047;-78
2023/09/05 05:59:21;;;;;;;12.13;10.75;;;14.00;99.90;;;;;;5118061;27;20046;-79
2023/09/05 06:01:47;;;;;;;13.98;11.73;;;14.00;99.90;;;;;;5135758;27;20081;-80
2023/09/05 06:04:15;;;;;;;12.32;10.80;;;14.10;99.90;;;;;;5135889;27;20043;-80
2023/09/05 06:06:42;;;;;;;14.90;11.98;;;14.20;99.90;;;;;;5136278;27;20373;-79
2023/09/05 06:09:08;;;;;;;13.27;10.93;;;14.20;99.90;;;;;;5135764;27;20058;-79
2023/09/05 06:11:34;;;;;;;13.40;11.98;;;14.30;99.90;;;;;;5135625;27;20422;-79
2023/09/05 06:14:00;;;;;;;12.35;11.02;;;14.40;99.90;;;;;;5135724;27;20039;-81
2023/09/05 06:16:26;;;;;;;16.30;11.85;;;14.50;99.90;;;;;;5135928;27;20461;-80
2023/09/05 06:18:52;;;;;;;14.10;11.75;;;14.60;99.90;;;;;;5135887;27;20122;-81
2023/09/05 06:21:17;;;;;;;14.73;12.15;;;14.70;99.90;;;;;;5135376;27;20124;-79
2023/09/05 06:23:43;;;;;;;15.25;13.05;;;14.80;99.90;;;;;;5135410;27;20043;-81
2023/09/05 06:26:09;;;;;;;15.80;13.13;;;14.80;99.90;;;;;;5135018;27;20134;-79
2023/09/05 06:28:35;;;;;;;14.13;12.60;;;14.90;99.90;;;;;;5135673;27;20062;-78
2023/09/05 06:31:01;;;;;;;15.27;12.27;;;14.90;99.90;;;;;;5135327;27;20074;-78
2023/09/05 06:33:26;;;;;;;13.85;11.65;;;14.90;99.90;;;;;;5135495;27;20065;-79
2023/09/05 06:35:52;;;;;;;14.57;12.30;;;15.00;99.90;;;;;;5135617;27;20125;-80
2023/09/05 06:38:21;;;;;;;14.82;11.82;;;15.10;99.90;;;;;;5135530;27;20472;-78
2023/09/05 06:40:46;;;;;;;12.85;11.35;;;15.20;99.90;;;;;;5135799;27;20074;-80
2023/09/05 06:43:12;;;;;;;14.35;12.60;;;15.40;99.90;;;;;;5134995;27;20039;-78
2023/09/05 06:45:38;;;;;;;13.77;12.35;;;15.50;99.90;;;;;;5116706;27;20051;-79
2023/09/05 06:48:04;;;;;;;13.55;11.57;;;15.60;99.90;;;;;;5134965;27;20496;-81
2023/09/05 06:50:30;;;;;;;12.77;11.55;;;15.80;99.90;;;;;;5134928;27;20107;-80
2023/09/05 06:52:55;;;;;;;14.02;12.60;;;15.90;99.90;;;;;;5134995;27;20572;-80
2023/09/05 06:55:21;;;;;;;14.27;12.57;;;16.00;99.90;;;;;;5134789;27;20043;-80
2023/09/05 06:57:47;;;;;;;13.13;11.75;;;16.10;99.90;;;;;;5135271;27;20491;-79
2023/09/05 07:00:13;;;;;;;14.23;11.65;;;16.20;99.90;;;;;;5135266;27;20058;-84
2023/09/05 07:02:39;;;;;;;12.80;11.20;;;16.30;99.90;;;;;;5134801;27;20039;-78
2023/09/05 07:05:05;;;;;;;13.40;12.10;;;16.40;99.90;;;;;;5134417;27;20442;-80
2023/09/05 07:07:31;;;;;;;16.73;12.23;;;16.50;99.90;;;;;;5133103;27;20061;-78
2023/09/05 07:09:57;;;;;;;12.88;11.27;;;16.60;99.90;;;;;;5134590;27;20551;-81
2023/09/05 07:12:22;;;;;;;13.07;10.75;;;16.70;99.90;;;;;;5134338;27;20074;-81
2023/09/05 07:14:49;;;;;;;12.65;11.45;;;16.90;99.90;;;;;;5134647;27;20047;-79
2023/09/05 07:17:14;;;;;;;10.65;9.55;;;17.10;99.90;;;;;;5134454;27;20047;-78
2023/09/05 07:19:40;;;;;;;12.13;10.02;;;17.40;99.90;;;;;;5134350;27;20050;-81
2023/09/05 07:22:07;;;;;;;13.35;9.02;;;18.00;99.90;;;;;;5134406;27;20039;-80
2023/09/05 07:24:32;;;;;;;11.32;9.55;;;19.50;99.90;;;;;;5099140;27;20384;-81
2023/09/05 07:27:04;;;;;;;10.15;9.15;;;21.20;99.90;;;;;;5129293;27;1265876;-80
2023/09/05 07:29:31;;;;;;;11.98;8.68;;;22.70;99.90;;;;;;5132429;27;20057;-79
2023/09/05 07:31:56;;;;;;;11.50;8.18;;;23.90;99.90;;;;;;5157247;27;20102;-82
2023/09/05 07:34:22;;;;;;;9.38;7.50;;;24.90;99.90;;;;;;5154640;27;20558;-79
2023/09/05 07:36:48;;;;;;;9.73;8.20;;;25.80;99.90;;;;;;5154004;27;20069;-83
2023/09/05 07:39:13;;;;;;;8.65;6.95;;;26.60;99.90;;;;;;5155311;27;20098;-80
2023/09/05 07:41:39;;;;;;;7.88;7.07;;;27.10;99.90;;;;;;5159033;27;20038;-80
2023/09/05 07:44:05;;;;;;;9.55;6.93;;;27.40;99.90;;;;;;5156897;27;20050;-79
2023/09/05 07:46:31;;;;;;;6.95;6.28;;;27.90;99.90;;;;;;5160302;27;20797;-79
2023/09/05 07:48:56;;;;;;;7.22;6.45;;;28.40;99.90;;;;;;5144088;27;20103;-80
2023/09/05 07:51:22;;;;;;;7.05;6.35;;;28.60;98.80;;;;;;5157422;27;20062;-79
2023/09/05 07:53:59;;;;;;;9.00;6.70;;;28.70;98.10;;;;;;5135487;27;20055;-80
2023/09/05 07:56:26;;;;;;;10.15;6.88;;;28.90;97.60;;;;;;5137656;27;20042;-82
2023/09/05 07:58:51;;;;;;;7.20;6.60;;;29.10;97.00;;;;;;5143774;27;20107;-81
2023/09/05 08:01:19;;;;;;;7.00;6.22;;;29.20;96.70;;;;;;5157215;27;20062;-80
2023/09/05 08:03:47;;;;;;;6.75;6.15;;;29.40;96.40;;;;;;5158892;27;20073;-80
2023/09/05 08:06:13;;;;;;;7.38;6.50;;;29.80;96.40;;;;;;5160305;27;20450;-87
2023/09/05 08:08:39;;;;;;;7.40;6.30;;;30.30;96.20;;;;;;5158357;27;20050;-83
2023/09/05 08:11:04;;;;;;;7.75;5.93;;;30.60;95.80;;;;;;5158619;27;20683;-79
2023/09/05 08:13:30;;;;;;;6.32;5.72;;;30.90;95.10;;;;;;5160044;27;20129;-82
2023/09/05 08:15:56;;;;;;;6.10;5.53;;;30.90;94.40;;;;;;5126005;27;20047;-81
2023/09/05 08:18:21;;;;;;;6.80;6.03;;;30.90;94.30;;;;;;5161222;27;20050;-78
2023/09/05 08:20:47;;;;;;;6.07;5.47;;;31.10;94.50;;;;;;5158318;27;20042;-81
2023/09/05 08:23:13;;;;;;;6.78;6.07;;;31.00;94.20;;;;;;5141437;27;20057;-82
2023/09/05 08:25:39;;;;;;;6.47;5.90;;;31.10;94.10;;;;;;5139519;27;20046;-82
2023/09/05 08:28:05;;;;;;;5.95;5.18;;;31.40;93.50;;;;;;5135784;27;20055;-79
2023/09/05 08:30:31;;;;;;;6.50;5.40;;;31.50;92.90;;;;;;5151702;27;20630;-81
2023/09/05 08:33:01;;;;;;;8.90;5.85;;;31.60;93.00;;;;;;5135490;27;20125;-81
2023/09/05 08:35:27;;;;;;;6.05;5.07;;;31.90;92.90;;;;;;5150998;27;20047;-80
2023/09/05 08:37:53;;;;;;;6.88;5.47;;;32.20;92.90;;;;;;5133425;27;20194;-81
2023/09/05 08:40:20;;;;;;;6.05;5.45;;;32.30;92.30;;;;;;5123337;27;20142;-81
2023/09/05 08:42:50;;;;;;;7.35;5.20;;;32.40;92.00;;;;;;5142106;27;20133;-80
2023/09/05 08:45:21;;;;;;;6.75;5.18;;;32.30;91.70;;;;;;5138559;27;20047;-82
2023/09/05 08:47:47;;;;;;;6.82;5.72;;;32.40;91.50;;;;;;5128926;27;20081;-79
2023/09/05 08:50:13;;;;;;;6.18;5.57;;;32.70;91.80;;;;;;5138734;27;20134;-82
2023/09/05 08:52:42;;;;;;;7.10;5.00;;;32.60;91.80;;;;;;5132775;27;20045;-80
2023/09/05 08:55:09;;;;;;;6.63;5.20;;;32.60;91.50;;;;;;5141939;27;20137;-79
2023/09/05 08:57:40;;;;;;;6.05;5.03;;;32.50;91.60;;;;;;5148605;27;20053;-80
2023/09/05 09:00:07;;;;;;;7.65;5.13;;;32.60;91.30;;;;;;5146187;27;20058;-81
2023/09/05 09:02:36;;;;;;;6.88;3.78;;;32.70;91.60;;;;;;5138977;27;20090;-79
2023/09/05 09:05:02;;;;;;;5.07;4.55;;;32.90;91.20;;;;;;5126965;27;20436;-79
2023/09/05 09:07:29;;;;;;;5.03;4.55;;;33.00;91.10;;;;;;5123513;27;20047;-86
2023/09/05 09:09:59;;;;;;;5.97;4.35;;;33.20;91.10;;;;;;5117179;27;20047;-81
2023/09/05 09:12:32;;;;;;;4.65;4.25;;;33.20;90.60;;;;;;5136194;27;20046;-81
2023/09/05 09:15:27;;;;;;;4.45;3.60;;;33.40;90.50;;;;;;5145676;27;20046;-80
2023/09/05 09:17:54;;;;;;;4.35;3.67;;;33.40;89.40;;;;;;5109603;27;20055;-83
2023/09/05 09:20:22;;;;;;;4.82;4.32;;;33.30;90.30;;;;;;5123244;27;20227;-80
2023/09/05 09:22:50;;;;;;;4.60;4.18;;;33.40;90.10;;;;;;5143388;27;20474;-86
2023/09/05 09:25:22;;;;;;;4.80;4.30;;;33.70;90.20;;;;;;5131290;27;20106;-80
2023/09/05 09:27:55;;;;;;;5.97;3.80;;;33.60;90.10;;;;;;5123598;27;20192;-81
2023/09/05 09:30:26;;;;;;;5.18;4.07;;;33.60;89.70;;;;;;5142916;27;20565;-81
2023/09/05 09:32:53;;;;;;;4.95;3.03;;;33.60;89.10;;;;;;5138241;27;20050;-84
2023/09/05 09:35:19;;;;;;;5.25;4.38;;;33.70;89.80;;;;;;5135971;27;20150;-80
2023/09/05 09:37:49;;;;;;;8.60;4.05;;;33.90;89.90;;;;;;5144056;27;20042;-82
2023/09/05 09:40:18;;;;;;;5.45;3.92;;;34.00;89.70;;;;;;5143992;27;20102;-80
2023/09/05 09:42:48;;;;;;;5.43;4.32;;;34.00;89.80;;;;;;5138427;27;20495;-80
2023/09/05 09:45:19;;;;;;;10.90;4.18;;;33.80;89.90;;;;;;5142828;27;20043;-81
2023/09/05 09:47:49;;;;;;;3.60;3.28;;;33.70;90.20;;;;;;5118719;27;20781;-80
2023/09/05 09:50:16;;;;;;;4.35;3.72;;;33.70;89.60;;;;;;5134101;27;20122;-84
2023/09/05 09:52:44;;;;;;;4.43;4.03;;;33.90;89.90;;;;;;5117073;27;20042;-83
2023/09/05 09:55:14;;;;;;;6.13;4.53;;;33.70;89.80;;;;;;5134471;27;20148;-84
2023/09/05 09:57:56;;;;;;;5.28;4.03;;;33.50;89.50;;;;;;5129741;27;20813;-84
2023/09/05 10:00:23;;;;;;;4.13;3.70;;;33.70;89.60;;;;;;5126086;27;20096;-82
2023/09/05 10:02:50;;;;;;;4.30;3.88;;;33.60;90.00;;;;;;5142870;27;20078;-80
2023/09/05 10:05:17;;;;;;;5.90;3.95;;;33.70;89.30;;;;;;5142568;27;20371;-80
2023/09/05 10:07:44;;;;;;;4.07;3.67;;;33.70;89.20;;;;;;5142172;27;20049;-82
2023/09/05 10:10:15;;;;;;;4.95;4.10;;;33.60;89.20;;;;;;5143419;27;20500;-81
2023/09/05 10:12:45;;;;;;;6.10;4.03;;;33.50;89.60;;;;;;5123001;27;20151;-80
2023/09/05 10:15:15;;;;;;;5.15;4.63;;;33.70;89.90;;;;;;5143362;27;20304;-80
2023/09/05 10:17:45;;;;;;;4.63;4.05;;;33.30;89.80;;;;;;5141906;27;20046;-81
2023/09/05 10:20:14;;;;;;;3.88;3.47;;;33.40;90.00;;;;;;5143022;27;20046;-80
2023/09/05 10:22:43;;;;;;;4.00;3.53;;;33.60;90.10;;;;;;5141832;27;20503;-83
2023/09/05 10:25:12;;;;;;;4.15;3.63;;;34.00;89.80;;;;;;5122119;27;20085;-81
2023/09/05 10:27:37;;;;;;;6.95;4.78;;;34.30;89.20;;;;;;5116911;27;20617;-81
2023/09/05 10:30:04;;;;;;;7.55;3.80;;;34.70;88.60;;;;;;5138515;27;20081;-83
2023/09/05 10:32:32;;;;;;;3.78;3.47;;;35.30;88.20;;;;;;5139525;27;20057;-85
2023/09/05 10:35:02;;;;;;;3.38;2.88;;;35.60;87.90;;;;;;5108375;27;20061;-82
2023/09/05 10:37:39;;;;;;;5.10;3.45;;;36.00;86.90;;;;;;5138106;27;20130;-85
2023/09/05 10:40:07;;;;;;;3.80;3.20;;;35.70;86.00;;;;;;5120767;27;20042;-82
2023/09/05 10:42:35;;;;;;;5.22;3.53;;;35.50;86.30;;;;;;5132738;27;20070;-81
2023/09/05 10:45:21;;;;;;;4.45;3.05;;;34.90;86.70;;;;;;5101979;27;20628;-81
2023/09/05 10:47:49;;;;;;;4.63;3.65;;;34.50;87.40;;;;;;5133253;27;20075;-81
2023/09/05 10:50:19;;;;;;;4.50;3.15;;;33.90;88.00;;;;;;5114177;27;20407;-82
2023/09/05 10:52:49;;;;;;;4.78;2.65;;;32.90;89.30;;;;;;5119916;27;20174;-83
2023/09/05 10:55:31;;;;;;;4.25;3.42;;;31.80;90.40;;;;;;5133662;27;20290;-83
2023/09/05 10:57:58;;;;;;;3.67;3.30;;;30.80;90.60;;;;;;5129511;27;20050;-81
2023/09/05 11:00:26;;;;;;;4.32;3.20;;;30.20;91.20;;;;;;5136537;27;20115;-83
2023/09/05 11:02:55;;;;;;;4.25;3.35;;;29.80;91.60;;;;;;5113280;27;20047;-83
2023/09/05 11:05:25;;;;;;;3.63;2.72;;;29.50;91.40;;;;;;5133773;27;20055;-81
2023/09/05 11:07:55;;;;;;;3.70;3.30;;;29.40;91.20;;;;;;5121041;27;20043;-79
2023/09/05 11:10:31;;;;;;;3.55;3.25;;;29.20;91.50;;;;;;5137632;27;20050;-81
2023/09/05 11:13:08;;;;;;;3.88;3.00;;;28.90;91.70;;;;;;5130634;27;20570;-80
2023/09/05 11:15:36;;;;;;;4.18;2.65;;;28.90;92.00;;;;;;5129562;27;20114;-80
2023/09/05 11:18:09;;;;;;;6.32;3.10;;;28.90;92.20;;;;;;5135709;27;20085;-80
2023/09/05 11:20:43;;;;;;;5.60;2.92;;;28.80;92.50;;;;;;5107778;27;20130;-82
2023/09/05 11:23:29;;;;;;;4.40;2.88;;;28.80;92.50;;;;;;5118231;27;20237;-82
2023/09/05 11:26:00;;;;;;;3.75;3.15;;;28.60;92.70;;;;;;5136886;27;20102;-81
2023/09/05 11:28:26;;;;;;;2.83;2.45;;;28.70;92.10;;;;;;5133904;27;20079;-81
2023/09/05 11:30:56;;;;;;;4.63;3.10;;;28.70;91.80;;;;;;5110680;27;20134;-83
2023/09/05 11:33:24;;;;;;;4.32;2.72;;;28.70;91.60;;;;;;5137340;27;20078;-81
2023/09/05 11:35:49;;;;;;;3.38;2.40;;;28.80;91.90;;;;;;5138792;27;20038;-80
2023/09/05 11:38:17;;;;;;;3.83;2.42;;;28.70;92.10;;;;;;5120675;27;20074;-83
2023/09/05 11:40:53;;;;;;;3.22;2.92;;;28.70;92.40;;;;;;5133004;27;20042;-83
2023/09/05 11:43:21;;;;;;;3.35;2.33;;;28.70;92.20;;;;;;5102771;28;20078;-81
2023/09/05 11:45:50;;;;;;;3.28;2.78;;;28.70;91.80;;;;;;5135046;27;20053;-81
2023/09/05 11:48:17;;;;;;;3.50;3.20;;;28.70;92.30;;;;;;5130702;27;20324;-81
2023/09/05 11:50:44;;;;;;;4.32;2.35;;;28.70;92.10;;;;;;5134529;27;20053;-81
2023/09/05 11:53:14;;;;;;;4.55;2.20;;;28.80;91.70;;;;;;5138928;27;20058;-80
2023/09/05 11:55:40;;;;;;;2.17;1.98;;;28.80;91.80;;;;;;5139291;27;20093;-78
2023/09/05 11:58:06;;;;;;;2.72;2.53;;;28.90;91.60;;;;;;5129853;27;20934;-82
2023/09/05 12:00:36;;;;;;;2.85;2.50;;;28.90;91.30;;;;;;5121510;27;20050;-79
2023/09/05 12:03:02;;;;;;;3.05;2.17;;;29.00;91.40;;;;;;5100650;28;20142;-80
2023/09/05 12:05:32;;;;;;;2.88;2.58;;;29.00;91.60;;;;;;5136203;27;20042;-79
2023/09/05 12:07:58;;;;;;;2.55;2.10;;;29.10;91.50;;;;;;5132420;27;20073;-79
2023/09/05 12:10:26;;;;;;;6.28;2.25;;;29.10;91.20;;;;;;5079334;27;20562;-80
2023/09/05 12:12:58;;;;;;;2.90;2.40;;;29.10;91.30;;;;;;5137219;27;20095;-82
2023/09/05 12:15:31;;;;;;;4.70;2.42;;;29.10;91.20;;;;;;5129363;27;20058;-80
2023/09/05 12:18:03;;;;;;;2.67;2.38;;;29.20;91.30;;;;;;5109733;27;20063;-80
2023/09/05 12:20:33;;;;;;;3.50;2.15;;;29.30;91.40;;;;;;5133083;27;20051;-81
2023/09/05 12:22:59;;;;;;;2.17;2.03;;;29.20;91.10;;;;;;5131756;27;20061;-79
2023/09/05 12:25:28;;;;;;;2.53;2.10;;;29.20;91.40;;;;;;5122097;27;20042;-78
2023/09/05 12:27:55;;;;;;;6.75;2.28;;;29.30;91.40;;;;;;5141685;27;20074;-79
2023/09/05 12:30:30;;;;;;;4.35;2.40;;;29.30;91.60;;;;;;5132440;27;20039;-80
2023/09/05 12:33:00;;;;;;;2.30;2.10;;;29.40;91.10;;;;;;5109964;27;20407;-79
2023/09/05 12:35:28;;;;;;;3.72;2.35;;;29.50;91.20;;;;;;5141509;27;20034;-79
2023/09/05 12:37:55;;;;;;;2.22;1.98;;;29.50;91.30;;;;;;5129795;27;20046;-80
2023/09/05 12:40:22;;;;;;;3.15;2.33;;;29.60;91.30;;;;;;5142460;27;20038;-80
2023/09/05 12:42:49;;;;;;;3.15;2.10;;;29.60;91.30;;;;;;5141883;27;20047;-81